sensor_id;sensor_type;location;lat;lon;timestamp;P1;durP1;ratioP1;P2;durP2;ratioP2
28266;SDS011;15525;45.568;5.448;2023-04-24T00:02:09;2.97;;;1.70;;
28266;SDS011;15525;45.568;5.448;2023-04-24T00:04:36;2.63;;;1.63;;
28266;SDS011;15525;45.568;5.448;2023-04-24T00:07:05;3.55;;;1.52;;
28266;SDS011;15525;45.568;5.448;2023-04-24T00:09:31;3.10;;;1.67;;
28266;SDS011;15525;45.568;5.448;2023-04-24T00:11:57;5.70;;;1.83;;
28266;SDS011;15525;45.568;5.448;2023-04-24T00:14:23;2.65;;;1.63;;
28266;SDS011;15525;45.568;5.448;2023-04-24T00:16:48;2.67;;;1.85;;
28266;SDS011;15525;45.568;5.448;2023-04-24T00:19:14;4.20;;;1.70;;
28266;SDS011;15525;45.568;5.448;2023-04-24T00:21:39;2.83;;;1.52;;
28266;SDS011;15525;45.568;5.448;2023-04-24T00:24:06;2.80;;;1.80;;
28266;SDS011;15525;45.568;5.448;2023-04-24T00:26:34;5.53;;;1.77;;
28266;SDS011;15525;45.568;5.448;2023-04-24T00:28:59;2.90;;;1.52;;
28266;SDS011;15525;45.568;5.448;2023-04-24T00:31:25;2.90;;;1.70;;
28266;SDS011;15525;45.568;5.448;2023-04-24T00:33:50;3.95;;;1.40;;
28266;SDS011;15525;45.568;5.448;2023-04-24T00:36:16;3.10;;;1.40;;
28266;SDS011;15525;45.568;5.448;2023-04-24T00:38:41;2.35;;;1.40;;
28266;SDS011;15525;45.568;5.448;2023-04-24T00:41:06;3.55;;;1.55;;
28266;SDS011;15525;45.568;5.448;2023-04-24T00:43:32;3.38;;;1.45;;
28266;SDS011;15525;45.568;5.448;2023-04-24T00:45:58;2.28;;;1.50;;
28266;SDS011;15525;45.568;5.448;2023-04-24T00:48:24;2.67;;;1.65;;
28266;SDS011;15525;45.568;5.448;2023-04-24T00:50:50;8.05;;;1.73;;
28266;SDS011;15525;45.568;5.448;2023-04-24T00:53:16;5.47;;;2.05;;
28266;SDS011;15525;45.568;5.448;2023-04-24T00:55:41;4.13;;;1.80;;
28266;SDS011;15525;45.568;5.448;2023-04-24T00:58:07;2.67;;;2.08;;
28266;SDS011;15525;45.568;5.448;2023-04-24T01:00:33;3.38;;;1.40;;
28266;SDS011;15525;45.568;5.448;2023-04-24T01:02:59;2.78;;;1.70;;
28266;SDS011;15525;45.568;5.448;2023-04-24T01:05:26;4.47;;;2.03;;
28266;SDS011;15525;45.568;5.448;2023-04-24T01:07:52;2.83;;;1.90;;
28266;SDS011;15525;45.568;5.448;2023-04-24T01:10:17;4.10;;;2.10;;
28266;SDS011;15525;45.568;5.448;2023-04-24T01:12:45;5.85;;;2.13;;
28266;SDS011;15525;45.568;5.448;2023-04-24T01:15:11;3.30;;;1.80;;
28266;SDS011;15525;45.568;5.448;2023-04-24T01:17:36;4.38;;;1.77;;
28266;SDS011;15525;45.568;5.448;2023-04-24T01:20:03;3.65;;;1.88;;
28266;SDS011;15525;45.568;5.448;2023-04-24T01:22:30;4.40;;;1.85;;
28266;SDS011;15525;45.568;5.448;2023-04-24T01:24:56;4.20;;;1.90;;
28266;SDS011;15525;45.568;5.448;2023-04-24T01:27:22;2.90;;;1.70;;
28266;SDS011;15525;45.568;5.448;2023-04-24T01:29:47;2.70;;;2.10;;
28266;SDS011;15525;45.568;5.448;2023-04-24T01:32:14;5.05;;;1.80;;
28266;SDS011;15525;45.568;5.448;2023-04-24T01:34:40;2.15;;;1.60;;
28266;SDS011;15525;45.568;5.448;2023-04-24T01:37:06;4.03;;;2.05;;
28266;SDS011;15525;45.568;5.448;2023-04-24T01:39:32;4.53;;;1.77;;
28266;SDS011;15525;45.568;5.448;2023-04-24T01:41:58;2.58;;;1.63;;
28266;SDS011;15525;45.568;5.448;2023-04-24T01:44:25;3.45;;;2.00;;
28266;SDS011;15525;45.568;5.448;2023-04-24T01:46:51;2.90;;;1.60;;
28266;SDS011;15525;45.568;5.448;2023-04-24T01:49:19;5.07;;;1.70;;
28266;SDS011;15525;45.568;5.448;2023-04-24T01:51:44;5.10;;;1.92;;
28266;SDS011;15525;45.568;5.448;2023-04-24T01:54:10;4.85;;;1.90;;
28266;SDS011;15525;45.568;5.448;2023-04-24T01:56:36;3.72;;;1.92;;
28266;SDS011;15525;45.568;5.448;2023-04-24T01:59:06;2.85;;;1.92;;
28266;SDS011;15525;45.568;5.448;2023-04-24T02:01:36;16.00;;;3.53;;
28266;SDS011;15525;45.568;5.448;2023-04-24T02:04:03;3.05;;;1.73;;
28266;SDS011;15525;45.568;5.448;2023-04-24T02:06:29;3.92;;;2.00;;
28266;SDS011;15525;45.568;5.448;2023-04-24T02:08:56;4.80;;;2.00;;
28266;SDS011;15525;45.568;5.448;2023-04-24T02:11:22;6.95;;;2.10;;
28266;SDS011;15525;45.568;5.448;2023-04-24T02:13:48;4.10;;;2.10;;
28266;SDS011;15525;45.568;5.448;2023-04-24T02:16:13;5.05;;;1.83;;
28266;SDS011;15525;45.568;5.448;2023-04-24T02:18:38;4.22;;;1.80;;
28266;SDS011;15525;45.568;5.448;2023-04-24T02:21:04;4.85;;;1.80;;
28266;SDS011;15525;45.568;5.448;2023-04-24T02:23:30;5.18;;;1.90;;
28266;SDS011;15525;45.568;5.448;2023-04-24T02:25:55;4.85;;;2.10;;
28266;SDS011;15525;45.568;5.448;2023-04-24T02:28:21;4.30;;;1.92;;
28266;SDS011;15525;45.568;5.448;2023-04-24T02:30:46;4.28;;;1.92;;
28266;SDS011;15525;45.568;5.448;2023-04-24T02:33:12;3.42;;;2.30;;
28266;SDS011;15525;45.568;5.448;2023-04-24T02:35:37;5.30;;;2.22;;
28266;SDS011;15525;45.568;5.448;2023-04-24T02:38:03;2.88;;;2.00;;
28266;SDS011;15525;45.568;5.448;2023-04-24T02:40:29;3.80;;;2.20;;
28266;SDS011;15525;45.568;5.448;2023-04-24T02:42:55;3.05;;;2.15;;
28266;SDS011;15525;45.568;5.448;2023-04-24T02:45:20;3.95;;;2.17;;
28266;SDS011;15525;45.568;5.448;2023-04-24T02:47:46;4.03;;;2.28;;
28266;SDS011;15525;45.568;5.448;2023-04-24T02:50:11;3.28;;;2.13;;
28266;SDS011;15525;45.568;5.448;2023-04-24T02:52:37;4.13;;;2.00;;
28266;SDS011;15525;45.568;5.448;2023-04-24T02:55:02;3.50;;;2.15;;
28266;SDS011;15525;45.568;5.448;2023-04-24T02:57:28;4.70;;;2.20;;
28266;SDS011;15525;45.568;5.448;2023-04-24T02:59:53;4.25;;;1.92;;
28266;SDS011;15525;45.568;5.448;2023-04-24T03:02:18;3.17;;;2.00;;
28266;SDS011;15525;45.568;5.448;2023-04-24T03:04:45;4.78;;;1.90;;
28266;SDS011;15525;45.568;5.448;2023-04-24T03:07:12;3.00;;;1.70;;
28266;SDS011;15525;45.568;5.448;2023-04-24T03:09:39;3.45;;;1.67;;
28266;SDS011;15525;45.568;5.448;2023-04-24T03:12:05;4.35;;;1.80;;
28266;SDS011;15525;45.568;5.448;2023-04-24T03:14:31;2.80;;;1.73;;
28266;SDS011;15525;45.568;5.448;2023-04-24T03:16:56;4.50;;;1.70;;
28266;SDS011;15525;45.568;5.448;2023-04-24T03:19:22;3.38;;;1.63;;
28266;SDS011;15525;45.568;5.448;2023-04-24T03:21:47;4.25;;;1.80;;
28266;SDS011;15525;45.568;5.448;2023-04-24T03:24:13;4.10;;;1.73;;
28266;SDS011;15525;45.568;5.448;2023-04-24T03:26:39;3.58;;;1.52;;
28266;SDS011;15525;45.568;5.448;2023-04-24T03:29:04;3.33;;;1.67;;
28266;SDS011;15525;45.568;5.448;2023-04-24T03:31:30;3.90;;;1.77;;
28266;SDS011;15525;45.568;5.448;2023-04-24T03:33:56;5.38;;;1.67;;
28266;SDS011;15525;45.568;5.448;2023-04-24T03:36:22;3.75;;;1.90;;
28266;SDS011;15525;45.568;5.448;2023-04-24T03:38:47;4.32;;;1.83;;
28266;SDS011;15525;45.568;5.448;2023-04-24T03:41:12;3.28;;;1.60;;
28266;SDS011;15525;45.568;5.448;2023-04-24T03:43:38;4.82;;;2.03;;
28266;SDS011;15525;45.568;5.448;2023-04-24T03:46:04;2.50;;;1.63;;
28266;SDS011;15525;45.568;5.448;2023-04-24T03:48:29;4.40;;;1.80;;
28266;SDS011;15525;45.568;5.448;2023-04-24T03:50:55;4.03;;;1.90;;
28266;SDS011;15525;45.568;5.448;2023-04-24T03:53:20;4.55;;;1.80;;
28266;SDS011;15525;45.568;5.448;2023-04-24T03:55:46;5.47;;;2.10;;
28266;SDS011;15525;45.568;5.448;2023-04-24T03:58:12;3.55;;;1.73;;
28266;SDS011;15525;45.568;5.448;2023-04-24T04:00:39;4.53;;;1.90;;
28266;SDS011;15525;45.568;5.448;2023-04-24T04:03:05;7.50;;;1.92;;
28266;SDS011;15525;45.568;5.448;2023-04-24T04:05:31;5.53;;;2.08;;
28266;SDS011;15525;45.568;5.448;2023-04-24T04:07:56;2.90;;;1.70;;
28266;SDS011;15525;45.568;5.448;2023-04-24T04:10:22;5.47;;;1.80;;
28266;SDS011;15525;45.568;5.448;2023-04-24T04:12:47;4.63;;;2.10;;
28266;SDS011;15525;45.568;5.448;2023-04-24T04:15:13;4.78;;;2.20;;
28266;SDS011;15525;45.568;5.448;2023-04-24T04:17:38;4.15;;;2.13;;
28266;SDS011;15525;45.568;5.448;2023-04-24T04:20:04;4.78;;;1.88;;
28266;SDS011;15525;45.568;5.448;2023-04-24T04:22:35;7.05;;;2.17;;
28266;SDS011;15525;45.568;5.448;2023-04-24T04:25:01;5.40;;;2.08;;
28266;SDS011;15525;45.568;5.448;2023-04-24T04:27:26;3.95;;;2.00;;
28266;SDS011;15525;45.568;5.448;2023-04-24T04:29:53;3.25;;;2.08;;
28266;SDS011;15525;45.568;5.448;2023-04-24T04:32:18;3.53;;;2.15;;
28266;SDS011;15525;45.568;5.448;2023-04-24T04:34:44;4.95;;;2.20;;
28266;SDS011;15525;45.568;5.448;2023-04-24T04:37:10;4.07;;;1.98;;
28266;SDS011;15525;45.568;5.448;2023-04-24T04:39:37;6.90;;;2.22;;
28266;SDS011;15525;45.568;5.448;2023-04-24T04:42:03;5.32;;;2.13;;
28266;SDS011;15525;45.568;5.448;2023-04-24T04:44:28;6.80;;;2.13;;
28266;SDS011;15525;45.568;5.448;2023-04-24T04:46:55;3.75;;;2.20;;
28266;SDS011;15525;45.568;5.448;2023-04-24T04:49:21;5.35;;;2.08;;
28266;SDS011;15525;45.568;5.448;2023-04-24T04:51:48;6.28;;;2.45;;
28266;SDS011;15525;45.568;5.448;2023-04-24T04:54:14;7.07;;;2.30;;
28266;SDS011;15525;45.568;5.448;2023-04-24T04:56:40;6.47;;;2.70;;
28266;SDS011;15525;45.568;5.448;2023-04-24T04:59:06;4.38;;;2.75;;
28266;SDS011;15525;45.568;5.448;2023-04-24T05:01:32;9.65;;;3.58;;
28266;SDS011;15525;45.568;5.448;2023-04-24T05:03:58;6.40;;;2.42;;
28266;SDS011;15525;45.568;5.448;2023-04-24T05:06:23;3.63;;;2.50;;
28266;SDS011;15525;45.568;5.448;2023-04-24T05:08:49;5.90;;;2.22;;
28266;SDS011;15525;45.568;5.448;2023-04-24T05:11:14;5.38;;;2.28;;
28266;SDS011;15525;45.568;5.448;2023-04-24T05:13:40;3.35;;;2.00;;
28266;SDS011;15525;45.568;5.448;2023-04-24T05:16:05;7.60;;;2.67;;
28266;SDS011;15525;45.568;5.448;2023-04-24T05:18:31;6.43;;;2.58;;
28266;SDS011;15525;45.568;5.448;2023-04-24T05:20:57;4.50;;;2.35;;
28266;SDS011;15525;45.568;5.448;2023-04-24T05:23:22;4.47;;;2.40;;
28266;SDS011;15525;45.568;5.448;2023-04-24T05:25:48;5.82;;;3.00;;
28266;SDS011;15525;45.568;5.448;2023-04-24T05:28:13;5.35;;;2.70;;
28266;SDS011;15525;45.568;5.448;2023-04-24T05:30:38;6.85;;;2.80;;
28266;SDS011;15525;45.568;5.448;2023-04-24T05:33:04;6.80;;;3.30;;
28266;SDS011;15525;45.568;5.448;2023-04-24T05:35:30;7.03;;;2.90;;
28266;SDS011;15525;45.568;5.448;2023-04-24T05:37:56;7.68;;;2.80;;
28266;SDS011;15525;45.568;5.448;2023-04-24T05:40:21;4.97;;;2.80;;
28266;SDS011;15525;45.568;5.448;2023-04-24T05:42:47;5.60;;;2.60;;
28266;SDS011;15525;45.568;5.448;2023-04-24T05:45:13;5.22;;;3.00;;
28266;SDS011;15525;45.568;5.448;2023-04-24T05:47:42;4.78;;;2.95;;
28266;SDS011;15525;45.568;5.448;2023-04-24T05:50:09;11.45;;;3.15;;
28266;SDS011;15525;45.568;5.448;2023-04-24T05:52:35;7.45;;;3.47;;
28266;SDS011;15525;45.568;5.448;2023-04-24T05:55:00;6.10;;;3.20;;
28266;SDS011;15525;45.568;5.448;2023-04-24T05:57:26;8.02;;;3.42;;
28266;SDS011;15525;45.568;5.448;2023-04-24T05:59:51;8.65;;;4.00;;
28266;SDS011;15525;45.568;5.448;2023-04-24T06:02:16;9.45;;;3.58;;
28266;SDS011;15525;45.568;5.448;2023-04-24T06:04:42;8.85;;;3.55;;
28266;SDS011;15525;45.568;5.448;2023-04-24T06:07:10;7.13;;;3.20;;
28266;SDS011;15525;45.568;5.448;2023-04-24T06:09:36;6.53;;;2.83;;
28266;SDS011;15525;45.568;5.448;2023-04-24T06:12:01;9.38;;;3.20;;
28266;SDS011;15525;45.568;5.448;2023-04-24T06:14:27;6.43;;;3.25;;
28266;SDS011;15525;45.568;5.448;2023-04-24T06:16:53;7.78;;;3.13;;
28266;SDS011;15525;45.568;5.448;2023-04-24T06:19:18;6.47;;;3.47;;
28266;SDS011;15525;45.568;5.448;2023-04-24T06:21:43;9.95;;;3.35;;
28266;SDS011;15525;45.568;5.448;2023-04-24T06:24:09;8.55;;;4.00;;
28266;SDS011;15525;45.568;5.448;2023-04-24T06:26:35;7.57;;;3.53;;
28266;SDS011;15525;45.568;5.448;2023-04-24T06:29:00;7.60;;;3.45;;
28266;SDS011;15525;45.568;5.448;2023-04-24T06:31:26;8.75;;;3.72;;
28266;SDS011;15525;45.568;5.448;2023-04-24T06:33:51;7.82;;;3.60;;
28266;SDS011;15525;45.568;5.448;2023-04-24T06:36:16;7.82;;;3.63;;
28266;SDS011;15525;45.568;5.448;2023-04-24T06:38:42;5.25;;;3.00;;
28266;SDS011;15525;45.568;5.448;2023-04-24T06:41:07;7.63;;;3.67;;
28266;SDS011;15525;45.568;5.448;2023-04-24T06:43:33;7.60;;;3.38;;
28266;SDS011;15525;45.568;5.448;2023-04-24T06:45:59;9.20;;;4.32;;
28266;SDS011;15525;45.568;5.448;2023-04-24T06:48:25;6.97;;;4.05;;
28266;SDS011;15525;45.568;5.448;2023-04-24T06:50:51;8.45;;;3.97;;
28266;SDS011;15525;45.568;5.448;2023-04-24T06:53:17;8.63;;;3.92;;
28266;SDS011;15525;45.568;5.448;2023-04-24T06:55:42;7.57;;;4.05;;
28266;SDS011;15525;45.568;5.448;2023-04-24T06:58:09;6.88;;;3.88;;
28266;SDS011;15525;45.568;5.448;2023-04-24T07:00:36;8.43;;;3.78;;
28266;SDS011;15525;45.568;5.448;2023-04-24T07:03:01;7.32;;;4.53;;
28266;SDS011;15525;45.568;5.448;2023-04-24T07:05:27;9.60;;;5.07;;
28266;SDS011;15525;45.568;5.448;2023-04-24T07:07:53;9.73;;;4.68;;
28266;SDS011;15525;45.568;5.448;2023-04-24T07:10:18;8.35;;;4.00;;
28266;SDS011;15525;45.568;5.448;2023-04-24T07:12:45;7.45;;;3.60;;
28266;SDS011;15525;45.568;5.448;2023-04-24T07:15:11;11.07;;;3.58;;
28266;SDS011;15525;45.568;5.448;2023-04-24T07:17:36;7.28;;;3.20;;
28266;SDS011;15525;45.568;5.448;2023-04-24T07:20:03;7.32;;;3.15;;
28266;SDS011;15525;45.568;5.448;2023-04-24T07:22:30;5.05;;;3.08;;
28266;SDS011;15525;45.568;5.448;2023-04-24T07:24:55;6.38;;;2.90;;
28266;SDS011;15525;45.568;5.448;2023-04-24T07:27:21;5.25;;;2.85;;
28266;SDS011;15525;45.568;5.448;2023-04-24T07:29:46;5.85;;;3.22;;
28266;SDS011;15525;45.568;5.448;2023-04-24T07:32:12;6.68;;;3.08;;
28266;SDS011;15525;45.568;5.448;2023-04-24T07:34:37;4.60;;;2.72;;
28266;SDS011;15525;45.568;5.448;2023-04-24T07:37:03;6.32;;;2.92;;
28266;SDS011;15525;45.568;5.448;2023-04-24T07:39:28;5.93;;;3.00;;
28266;SDS011;15525;45.568;5.448;2023-04-24T07:41:54;4.97;;;2.88;;
28266;SDS011;15525;45.568;5.448;2023-04-24T07:44:19;4.57;;;2.50;;
28266;SDS011;15525;45.568;5.448;2023-04-24T07:46:45;5.90;;;3.10;;
28266;SDS011;15525;45.568;5.448;2023-04-24T07:49:10;5.60;;;3.10;;
28266;SDS011;15525;45.568;5.448;2023-04-24T07:51:36;4.22;;;2.60;;
28266;SDS011;15525;45.568;5.448;2023-04-24T07:54:03;6.93;;;3.10;;
28266;SDS011;15525;45.568;5.448;2023-04-24T07:56:30;6.20;;;3.00;;
28266;SDS011;15525;45.568;5.448;2023-04-24T07:58:56;4.82;;;3.10;;
28266;SDS011;15525;45.568;5.448;2023-04-24T08:01:21;7.25;;;3.25;;
28266;SDS011;15525;45.568;5.448;2023-04-24T08:03:46;5.15;;;3.10;;
28266;SDS011;15525;45.568;5.448;2023-04-24T08:06:12;4.53;;;3.03;;
28266;SDS011;15525;45.568;5.448;2023-04-24T08:08:37;7.13;;;3.28;;
28266;SDS011;15525;45.568;5.448;2023-04-24T08:11:03;5.53;;;3.13;;
28266;SDS011;15525;45.568;5.448;2023-04-24T08:13:28;7.50;;;3.22;;
28266;SDS011;15525;45.568;5.448;2023-04-24T08:15:54;6.28;;;3.22;;
28266;SDS011;15525;45.568;5.448;2023-04-24T08:18:19;3.90;;;2.72;;
28266;SDS011;15525;45.568;5.448;2023-04-24T08:20:45;4.10;;;3.17;;
28266;SDS011;15525;45.568;5.448;2023-04-24T08:23:10;4.18;;;2.90;;
28266;SDS011;15525;45.568;5.448;2023-04-24T08:25:35;4.32;;;2.80;;
28266;SDS011;15525;45.568;5.448;2023-04-24T08:28:05;4.40;;;3.05;;
28266;SDS011;15525;45.568;5.448;2023-04-24T08:30:31;3.85;;;2.78;;
28266;SDS011;15525;45.568;5.448;2023-04-24T08:32:57;3.30;;;2.83;;
28266;SDS011;15525;45.568;5.448;2023-04-24T08:35:23;7.15;;;3.08;;
28266;SDS011;15525;45.568;5.448;2023-04-24T08:37:48;5.82;;;2.88;;
28266;SDS011;15525;45.568;5.448;2023-04-24T08:40:14;3.83;;;3.05;;
28266;SDS011;15525;45.568;5.448;2023-04-24T08:42:42;5.93;;;3.10;;
28266;SDS011;15525;45.568;5.448;2023-04-24T08:45:09;5.78;;;3.13;;
28266;SDS011;15525;45.568;5.448;2023-04-24T08:47:36;4.55;;;3.03;;
28266;SDS011;15525;45.568;5.448;2023-04-24T08:50:03;5.85;;;3.17;;
28266;SDS011;15525;45.568;5.448;2023-04-24T08:52:32;5.93;;;3.20;;
28266;SDS011;15525;45.568;5.448;2023-04-24T08:54:58;5.22;;;2.95;;
28266;SDS011;15525;45.568;5.448;2023-04-24T08:57:24;6.20;;;3.28;;
28266;SDS011;15525;45.568;5.448;2023-04-24T08:59:51;4.60;;;2.92;;
28266;SDS011;15525;45.568;5.448;2023-04-24T09:02:17;3.75;;;2.80;;
28266;SDS011;15525;45.568;5.448;2023-04-24T09:04:43;6.85;;;3.28;;
28266;SDS011;15525;45.568;5.448;2023-04-24T09:07:10;7.28;;;3.20;;
28266;SDS011;15525;45.568;5.448;2023-04-24T09:09:37;4.25;;;2.90;;
28266;SDS011;15525;45.568;5.448;2023-04-24T09:12:03;6.70;;;3.15;;
28266;SDS011;15525;45.568;5.448;2023-04-24T09:14:29;5.55;;;3.17;;
28266;SDS011;15525;45.568;5.448;2023-04-24T09:16:56;8.57;;;3.22;;
28266;SDS011;15525;45.568;5.448;2023-04-24T09:19:22;5.15;;;3.03;;
28266;SDS011;15525;45.568;5.448;2023-04-24T09:21:48;4.63;;;3.03;;
28266;SDS011;15525;45.568;5.448;2023-04-24T09:24:20;4.35;;;2.60;;
28266;SDS011;15525;45.568;5.448;2023-04-24T09:26:59;4.35;;;2.92;;
28266;SDS011;15525;45.568;5.448;2023-04-24T09:29:26;4.82;;;3.10;;
28266;SDS011;15525;45.568;5.448;2023-04-24T09:31:52;3.60;;;2.90;;
28266;SDS011;15525;45.568;5.448;2023-04-24T09:34:24;3.78;;;2.92;;
28266;SDS011;15525;45.568;5.448;2023-04-24T09:36:51;5.47;;;2.50;;
28266;SDS011;15525;45.568;5.448;2023-04-24T09:39:17;5.03;;;2.90;;
28266;SDS011;15525;45.568;5.448;2023-04-24T09:41:46;5.97;;;3.10;;
28266;SDS011;15525;45.568;5.448;2023-04-24T09:44:17;7.32;;;3.03;;
28266;SDS011;15525;45.568;5.448;2023-04-24T09:46:48;5.22;;;3.60;;
28266;SDS011;15525;45.568;5.448;2023-04-24T09:49:16;5.95;;;2.88;;
28266;SDS011;15525;45.568;5.448;2023-04-24T09:51:45;4.85;;;3.15;;
28266;SDS011;15525;45.568;5.448;2023-04-24T09:54:13;3.60;;;3.10;;
28266;SDS011;15525;45.568;5.448;2023-04-24T09:56:44;5.30;;;2.83;;
28266;SDS011;15525;45.568;5.448;2023-04-24T09:59:10;4.00;;;2.83;;
28266;SDS011;15525;45.568;5.448;2023-04-24T10:01:36;4.72;;;3.00;;
28266;SDS011;15525;45.568;5.448;2023-04-24T10:04:03;4.38;;;3.10;;
28266;SDS011;15525;45.568;5.448;2023-04-24T10:06:35;4.60;;;3.20;;
28266;SDS011;15525;45.568;5.448;2023-04-24T10:09:01;8.05;;;3.05;;
28266;SDS011;15525;45.568;5.448;2023-04-24T10:11:27;5.97;;;3.05;;
28266;SDS011;15525;45.568;5.448;2023-04-24T10:13:53;3.97;;;2.65;;
28266;SDS011;15525;45.568;5.448;2023-04-24T10:16:18;5.10;;;3.03;;
28266;SDS011;15525;45.568;5.448;2023-04-24T10:18:46;6.22;;;3.13;;
28266;SDS011;15525;45.568;5.448;2023-04-24T10:21:14;3.90;;;2.50;;
28266;SDS011;15525;45.568;5.448;2023-04-24T10:23:40;5.57;;;2.72;;
28266;SDS011;15525;45.568;5.448;2023-04-24T10:26:06;6.15;;;3.30;;
28266;SDS011;15525;45.568;5.448;2023-04-24T10:28:42;5.22;;;2.50;;
28266;SDS011;15525;45.568;5.448;2023-04-24T10:31:10;7.28;;;2.75;;
28266;SDS011;15525;45.568;5.448;2023-04-24T10:33:36;4.35;;;2.30;;
28266;SDS011;15525;45.568;5.448;2023-04-24T10:36:03;6.55;;;2.95;;
28266;SDS011;15525;45.568;5.448;2023-04-24T10:38:29;4.22;;;2.97;;
28266;SDS011;15525;45.568;5.448;2023-04-24T10:41:08;3.85;;;2.50;;
28266;SDS011;15525;45.568;5.448;2023-04-24T10:43:39;4.47;;;3.13;;
28266;SDS011;15525;45.568;5.448;2023-04-24T10:46:05;5.07;;;2.70;;
28266;SDS011;15525;45.568;5.448;2023-04-24T10:48:31;4.20;;;2.60;;
28266;SDS011;15525;45.568;5.448;2023-04-24T10:50:57;6.25;;;3.10;;
28266;SDS011;15525;45.568;5.448;2023-04-24T10:53:23;6.88;;;3.17;;
28266;SDS011;15525;45.568;5.448;2023-04-24T11:01:24;4.18;;;2.60;;
28266;SDS011;15525;45.568;5.448;2023-04-24T11:03:54;4.63;;;2.88;;
28266;SDS011;15525;45.568;5.448;2023-04-24T11:06:33;7.57;;;3.20;;
28266;SDS011;15525;45.568;5.448;2023-04-24T11:09:06;6.60;;;3.17;;
28266;SDS011;15525;45.568;5.448;2023-04-24T11:11:33;5.20;;;2.83;;
28266;SDS011;15525;45.568;5.448;2023-04-24T11:14:00;3.28;;;2.58;;
28266;SDS011;15525;45.568;5.448;2023-04-24T11:16:28;3.72;;;2.58;;
28266;SDS011;15525;45.568;5.448;2023-04-24T11:24:22;4.68;;;2.70;;
28266;SDS011;15525;45.568;5.448;2023-04-24T11:27:06;3.60;;;2.78;;
28266;SDS011;15525;45.568;5.448;2023-04-24T11:32:15;3.95;;;2.70;;
28266;SDS011;15525;45.568;5.448;2023-04-24T11:34:44;5.90;;;2.75;;
28266;SDS011;15525;45.568;5.448;2023-04-24T11:37:11;3.38;;;2.38;;
28266;SDS011;15525;45.568;5.448;2023-04-24T11:39:38;5.55;;;2.55;;
28266;SDS011;15525;45.568;5.448;2023-04-24T11:42:03;4.22;;;2.70;;
28266;SDS011;15525;45.568;5.448;2023-04-24T11:44:31;3.13;;;2.30;;
28266;SDS011;15525;45.568;5.448;2023-04-24T11:46:59;4.03;;;2.50;;
28266;SDS011;15525;45.568;5.448;2023-04-24T11:49:25;5.30;;;2.40;;
28266;SDS011;15525;45.568;5.448;2023-04-24T11:51:54;3.80;;;2.40;;
28266;SDS011;15525;45.568;5.448;2023-04-24T11:54:20;3.53;;;2.33;;
28266;SDS011;15525;45.568;5.448;2023-04-24T11:56:46;4.15;;;2.05;;
28266;SDS011;15525;45.568;5.448;2023-04-24T11:59:12;3.92;;;2.60;;
28266;SDS011;15525;45.568;5.448;2023-04-24T12:01:44;4.82;;;2.20;;
28266;SDS011;15525;45.568;5.448;2023-04-24T12:04:13;5.20;;;2.70;;
28266;SDS011;15525;45.568;5.448;2023-04-24T12:06:40;4.47;;;2.40;;
28266;SDS011;15525;45.568;5.448;2023-04-24T12:09:05;3.80;;;2.38;;
28266;SDS011;15525;45.568;5.448;2023-04-24T12:11:32;3.80;;;2.80;;
28266;SDS011;15525;45.568;5.448;2023-04-24T12:13:57;3.78;;;2.53;;
28266;SDS011;15525;45.568;5.448;2023-04-24T12:16:23;4.40;;;2.80;;
28266;SDS011;15525;45.568;5.448;2023-04-24T12:18:51;5.28;;;2.60;;
28266;SDS011;15525;45.568;5.448;2023-04-24T12:21:20;5.25;;;2.38;;
28266;SDS011;15525;45.568;5.448;2023-04-24T12:23:46;3.60;;;2.50;;
28266;SDS011;15525;45.568;5.448;2023-04-24T12:26:16;3.90;;;2.30;;
28266;SDS011;15525;45.568;5.448;2023-04-24T12:28:42;3.00;;;2.33;;
28266;SDS011;15525;45.568;5.448;2023-04-24T12:31:10;3.58;;;2.38;;
28266;SDS011;15525;45.568;5.448;2023-04-24T12:33:36;3.45;;;2.17;;
28266;SDS011;15525;45.568;5.448;2023-04-24T12:36:01;2.80;;;2.33;;
28266;SDS011;15525;45.568;5.448;2023-04-24T12:38:28;6.38;;;2.22;;
28266;SDS011;15525;45.568;5.448;2023-04-24T12:41:08;3.60;;;2.42;;
28266;SDS011;15525;45.568;5.448;2023-04-24T12:43:36;4.72;;;2.50;;
28266;SDS011;15525;45.568;5.448;2023-04-24T12:46:02;2.40;;;2.03;;
28266;SDS011;15525;45.568;5.448;2023-04-24T12:48:28;4.75;;;2.75;;
28266;SDS011;15525;45.568;5.448;2023-04-24T12:50:54;4.47;;;2.60;;
28266;SDS011;15525;45.568;5.448;2023-04-24T12:53:21;4.38;;;2.50;;
28266;SDS011;15525;45.568;5.448;2023-04-24T12:55:47;3.45;;;2.53;;
28266;SDS011;15525;45.568;5.448;2023-04-24T12:58:17;3.83;;;2.17;;
28266;SDS011;15525;45.568;5.448;2023-04-24T13:00:46;4.07;;;2.30;;
28266;SDS011;15525;45.568;5.448;2023-04-24T13:03:12;3.28;;;2.40;;
28266;SDS011;15525;45.568;5.448;2023-04-24T13:05:38;3.28;;;2.42;;
28266;SDS011;15525;45.568;5.448;2023-04-24T13:08:03;4.43;;;2.40;;
28266;SDS011;15525;45.568;5.448;2023-04-24T13:10:29;4.57;;;2.40;;
28266;SDS011;15525;45.568;5.448;2023-04-24T13:12:55;8.07;;;3.05;;
28266;SDS011;15525;45.568;5.448;2023-04-24T13:15:20;4.75;;;2.40;;
28266;SDS011;15525;45.568;5.448;2023-04-24T13:17:46;3.22;;;2.15;;
28266;SDS011;15525;45.568;5.448;2023-04-24T13:20:11;6.82;;;2.50;;
28266;SDS011;15525;45.568;5.448;2023-04-24T13:22:37;4.10;;;2.38;;
28266;SDS011;15525;45.568;5.448;2023-04-24T13:25:02;3.38;;;2.03;;
28266;SDS011;15525;45.568;5.448;2023-04-24T13:27:28;3.15;;;2.28;;
28266;SDS011;15525;45.568;5.448;2023-04-24T13:29:53;2.35;;;1.90;;
28266;SDS011;15525;45.568;5.448;2023-04-24T13:32:19;3.05;;;2.40;;
28266;SDS011;15525;45.568;5.448;2023-04-24T13:34:44;3.83;;;2.40;;
28266;SDS011;15525;45.568;5.448;2023-04-24T13:37:10;4.57;;;2.33;;
28266;SDS011;15525;45.568;5.448;2023-04-24T13:39:35;2.88;;;2.25;;
28266;SDS011;15525;45.568;5.448;2023-04-24T13:42:01;2.80;;;2.28;;
28266;SDS011;15525;45.568;5.448;2023-04-24T13:44:26;4.60;;;2.28;;
28266;SDS011;15525;45.568;5.448;2023-04-24T13:46:52;3.40;;;2.22;;
28266;SDS011;15525;45.568;5.448;2023-04-24T13:49:22;3.47;;;2.28;;
28266;SDS011;15525;45.568;5.448;2023-04-24T13:51:49;3.55;;;2.22;;
28266;SDS011;15525;45.568;5.448;2023-04-24T13:54:15;4.53;;;2.22;;
28266;SDS011;15525;45.568;5.448;2023-04-24T13:56:41;4.25;;;2.10;;
28266;SDS011;15525;45.568;5.448;2023-04-24T13:59:06;3.05;;;2.03;;
28266;SDS011;15525;45.568;5.448;2023-04-24T14:01:32;3.17;;;2.10;;
28266;SDS011;15525;45.568;5.448;2023-04-24T14:03:57;3.97;;;2.28;;
28266;SDS011;15525;45.568;5.448;2023-04-24T14:06:23;3.20;;;2.30;;
28266;SDS011;15525;45.568;5.448;2023-04-24T14:08:49;2.75;;;2.22;;
28266;SDS011;15525;45.568;5.448;2023-04-24T14:11:15;3.85;;;2.10;;
28266;SDS011;15525;45.568;5.448;2023-04-24T14:13:41;3.10;;;2.38;;
28266;SDS011;15525;45.568;5.448;2023-04-24T14:16:07;4.88;;;2.30;;
28266;SDS011;15525;45.568;5.448;2023-04-24T14:18:33;3.10;;;2.33;;
28266;SDS011;15525;45.568;5.448;2023-04-24T14:20:59;4.47;;;2.50;;
28266;SDS011;15525;45.568;5.448;2023-04-24T14:23:26;3.10;;;2.33;;
28266;SDS011;15525;45.568;5.448;2023-04-24T14:25:51;2.97;;;2.30;;
28266;SDS011;15525;45.568;5.448;2023-04-24T14:28:20;4.38;;;2.53;;
28266;SDS011;15525;45.568;5.448;2023-04-24T14:30:46;3.38;;;2.42;;
28266;SDS011;15525;45.568;5.448;2023-04-24T14:33:12;6.00;;;2.50;;
28266;SDS011;15525;45.568;5.448;2023-04-24T14:35:38;4.97;;;2.50;;
28266;SDS011;15525;45.568;5.448;2023-04-24T14:38:05;3.22;;;2.20;;
28266;SDS011;15525;45.568;5.448;2023-04-24T14:40:30;5.50;;;2.30;;
28266;SDS011;15525;45.568;5.448;2023-04-24T14:42:57;3.45;;;2.20;;
28266;SDS011;15525;45.568;5.448;2023-04-24T14:45:23;3.20;;;2.13;;
28266;SDS011;15525;45.568;5.448;2023-04-24T14:47:49;3.15;;;2.15;;
28266;SDS011;15525;45.568;5.448;2023-04-24T14:50:15;3.83;;;2.40;;
28266;SDS011;15525;45.568;5.448;2023-04-24T14:52:40;3.35;;;2.13;;
28266;SDS011;15525;45.568;5.448;2023-04-24T14:55:06;3.75;;;2.50;;
28266;SDS011;15525;45.568;5.448;2023-04-24T14:57:32;3.67;;;2.40;;